PWSweather.com
Personal Weather Stations
Station Observations
IBAVARIA50
Munich, PlieningDE 85652

MunichPlieningDE 85652

Lat: 48.19916153, Lon: 11.79794312

Elevation: 504

Station Type: Davis Vantage Pro2

http://wetterstation-pliening.info

High Low Average
Temperature 54.8°F12.7°C 38.6°F3.7°C 44.7°F7.1°C
Dew Point 51.6°F10.9°C 37.5°F3.1°C 43.3°F6.3°C
Winds 15.0 mph 24.1 kmh Calm Calm 5.0 mph E8.0 kmh E
Wind Gusts 21.0 mph33.8 kmh -- 9.0 mph14.5 kmh
Humidity 97% 88% 95%
Pressure 29.67 in1004.7 mb 29.03 in983.1 mb -
Precipitation 0.00 in0.0 mm - -
Hour Temp Dew Point Humidity Winds Wind Gusts Pressure Precip Precip Rate Daily Precip Total
12:00 AM 39.2°F4.0°C 37.8°F3.2°C 95% 2.0 mph NNE3.2 kmh NNE 4.0 mph6.4 kmh 29.65 in1004.1 mb 0.00 in0.0 mm 0.00 in0.0 mm 0.00 in0.0 mm
12:05 AM 39.2°F4.0°C 37.8°F3.2°C 95% 2.0 mph N3.2 kmh N 4.0 mph6.4 kmh 29.65 in1004.1 mb 0.00 in0.0 mm 0.00 in0.0 mm 0.00 in0.0 mm
12:10 AM 39.1°F3.9°C 37.7°F3.2°C 95% 3.0 mph NE4.8 kmh NE 4.0 mph6.4 kmh 29.65 in1004.1 mb 0.00 in0.0 mm 0.00 in0.0 mm 0.00 in0.0 mm
12:15 AM 39.0°F3.9°C 37.6°F3.1°C 95% 2.0 mph N3.2 kmh N 4.0 mph6.4 kmh 29.65 in1004.1 mb 0.00 in0.0 mm 0.00 in0.0 mm 0.00 in0.0 mm
12:20 AM 39.1°F3.9°C 37.7°F3.2°C 95% 2.0 mph N3.2 kmh N 4.0 mph6.4 kmh 29.66 in1004.4 mb 0.00 in0.0 mm 0.00 in0.0 mm 0.00 in0.0 mm
12:25 AM 39.0°F3.9°C 37.6°F3.1°C 95% 3.0 mph NE4.8 kmh NE 5.0 mph8.0 kmh 29.66 in1004.4 mb 0.00 in0.0 mm 0.00 in0.0 mm 0.00 in0.0 mm
12:30 AM 38.9°F3.8°C 37.5°F3.1°C 95% 3.0 mph NNE4.8 kmh NNE 5.0 mph8.0 kmh 29.66 in1004.4 mb 0.00 in0.0 mm 0.00 in0.0 mm 0.00 in0.0 mm
12:35 AM 38.9°F3.8°C 37.5°F3.1°C 95% 3.0 mph NNE4.8 kmh NNE 5.0 mph8.0 kmh 29.65 in1004.1 mb 0.00 in0.0 mm 0.00 in0.0 mm 0.00 in0.0 mm
12:40 AM 39.0°F3.9°C 37.9°F3.3°C 96% 3.0 mph NE4.8 kmh NE 4.0 mph6.4 kmh 29.66 in1004.4 mb 0.00 in0.0 mm 0.00 in0.0 mm 0.00 in0.0 mm
12:45 AM 39.0°F3.9°C 37.9°F3.3°C 96% 2.0 mph N3.2 kmh N 5.0 mph8.0 kmh 29.66 in1004.4 mb 0.00 in0.0 mm 0.00 in0.0 mm 0.00 in0.0 mm
12:50 AM 39.0°F3.9°C 37.9°F3.3°C 96% 5.0 mph N8.0 kmh N 5.0 mph8.0 kmh 29.65 in1004.1 mb 0.00 in0.0 mm 0.00 in0.0 mm 0.00 in0.0 mm
12:55 AM 39.0°F3.9°C 37.9°F3.3°C 96% 3.0 mph NNE4.8 kmh NNE 5.0 mph8.0 kmh 29.66 in1004.4 mb 0.00 in0.0 mm 0.00 in0.0 mm 0.00 in0.0 mm
01:00 AM 39.0°F3.9°C 37.9°F3.3°C 96% 2.0 mph NE3.2 kmh NE 5.0 mph8.0 kmh 29.66 in1004.4 mb 0.00 in0.0 mm 0.00 in0.0 mm 0.00 in0.0 mm
01:05 AM 39.0°F3.9°C 37.9°F3.3°C 96% 5.0 mph NE8.0 kmh NE 5.0 mph8.0 kmh 29.66 in1004.4 mb 0.00 in0.0 mm 0.00 in0.0 mm 0.00 in0.0 mm
01:10 AM 39.0°F3.9°C 37.9°F3.3°C 96% 2.0 mph 3.2 kmh 5.0 mph8.0 kmh 29.66 in1004.4 mb 0.00 in0.0 mm 0.00 in0.0 mm 0.00 in0.0 mm
01:15 AM 39.0°F3.9°C 37.9°F3.3°C 96% 3.0 mph N4.8 kmh N 4.0 mph6.4 kmh 29.65 in1004.1 mb 0.00 in0.0 mm 0.00 in0.0 mm 0.00 in0.0 mm
01:20 AM 39.0°F3.9°C 37.9°F3.3°C 96% 2.0 mph N3.2 kmh N 5.0 mph8.0 kmh 29.66 in1004.4 mb 0.00 in0.0 mm 0.00 in0.0 mm 0.00 in0.0 mm
01:25 AM 39.0°F3.9°C 37.9°F3.3°C 96% 3.0 mph NNW4.8 kmh NNW 4.0 mph6.4 kmh 29.67 in1004.7 mb 0.00 in0.0 mm 0.00 in0.0 mm 0.00 in0.0 mm
01:30 AM 39.1°F3.9°C 38.0°F3.3°C 96% 3.0 mph N4.8 kmh N 4.0 mph6.4 kmh 29.67 in1004.7 mb 0.00 in0.0 mm 0.00 in0.0 mm 0.00 in0.0 mm
01:35 AM 39.0°F3.9°C 37.9°F3.3°C 96% 4.0 mph NNE6.4 kmh NNE 6.0 mph9.7 kmh 29.66 in1004.4 mb 0.00 in0.0 mm 0.00 in0.0 mm 0.00 in0.0 mm
01:40 AM 38.9°F3.8°C 37.8°F3.2°C 96% 5.0 mph NE8.0 kmh NE 7.0 mph11.3 kmh 29.64 in1003.7 mb 0.00 in0.0 mm 0.00 in0.0 mm 0.00 in0.0 mm
01:45 AM 38.8°F3.8°C 37.7°F3.2°C 96% 5.0 mph N8.0 kmh N 7.0 mph11.3 kmh 29.64 in1003.7 mb 0.00 in0.0 mm 0.00 in0.0 mm 0.00 in0.0 mm
01:50 AM 38.7°F3.7°C 37.6°F3.1°C 96% 5.0 mph NE8.0 kmh NE 11.0 mph17.7 kmh 29.63 in1003.4 mb 0.00 in0.0 mm 0.00 in0.0 mm 0.00 in0.0 mm
01:55 AM 38.6°F3.7°C 37.5°F3.1°C 96% 2.0 mph NE3.2 kmh NE 11.0 mph17.7 kmh 29.63 in1003.4 mb 0.00 in0.0 mm 0.00 in0.0 mm 0.00 in0.0 mm
02:00 AM 38.7°F3.7°C 37.6°F3.1°C 96% 5.0 mph NNE8.0 kmh NNE 10.0 mph16.1 kmh 29.64 in1003.7 mb 0.00 in0.0 mm 0.00 in0.0 mm 0.00 in0.0 mm
02:05 AM 38.7°F3.7°C 37.6°F3.1°C 96% 3.0 mph NE4.8 kmh NE 9.0 mph14.5 kmh 29.63 in1003.4 mb 0.00 in0.0 mm 0.00 in0.0 mm 0.00 in0.0 mm
02:10 AM 38.7°F3.7°C 37.6°F3.1°C 96% 5.0 mph NE8.0 kmh NE 7.0 mph11.3 kmh 29.63 in1003.4 mb 0.00 in0.0 mm 0.00 in0.0 mm 0.00 in0.0 mm
02:15 AM 38.7°F3.7°C 37.6°F3.1°C 96% 3.0 mph E4.8 kmh E 7.0 mph11.3 kmh 29.63 in1003.4 mb 0.00 in0.0 mm 0.00 in0.0 mm 0.00 in0.0 mm
02:20 AM 38.7°F3.7°C 37.6°F3.1°C 96% 4.0 mph ENE6.4 kmh ENE 7.0 mph11.3 kmh 29.63 in1003.4 mb 0.00 in0.0 mm 0.00 in0.0 mm 0.00 in0.0 mm
02:25 AM 38.7°F3.7°C 37.6°F3.1°C 96% 3.0 mph ENE4.8 kmh ENE 5.0 mph8.0 kmh 29.64 in1003.7 mb 0.00 in0.0 mm 0.00 in0.0 mm 0.00 in0.0 mm
02:30 AM 38.7°F3.7°C 37.6°F3.1°C 96% 3.0 mph NNE4.8 kmh NNE 6.0 mph9.7 kmh 29.64 in1003.7 mb 0.00 in0.0 mm 0.00 in0.0 mm 0.00 in0.0 mm
02:35 AM 38.8°F3.8°C 37.7°F3.2°C 96% 2.0 mph NE3.2 kmh NE 5.0 mph8.0 kmh 29.64 in1003.7 mb 0.00 in0.0 mm 0.00 in0.0 mm 0.00 in0.0 mm
02:40 AM 38.8°F3.8°C 37.7°F3.2°C 96% 4.0 mph NE6.4 kmh NE 6.0 mph9.7 kmh 29.63 in1003.4 mb 0.00 in0.0 mm 0.00 in0.0 mm 0.00 in0.0 mm
02:45 AM 38.8°F3.8°C 37.7°F3.2°C 96% 1.0 mph NE1.6 kmh NE 6.0 mph9.7 kmh 29.63 in1003.4 mb 0.00 in0.0 mm 0.00 in0.0 mm 0.00 in0.0 mm
02:50 AM 38.9°F3.8°C 37.8°F3.2°C 96% 3.0 mph NE4.8 kmh NE 6.0 mph9.7 kmh 29.63 in1003.4 mb 0.00 in0.0 mm 0.00 in0.0 mm 0.00 in0.0 mm
02:55 AM 38.9°F3.8°C 38.1°F3.4°C 97% 3.0 mph NE4.8 kmh NE 4.0 mph6.4 kmh 29.64 in1003.7 mb 0.00 in0.0 mm 0.00 in0.0 mm 0.00 in0.0 mm
03:00 AM 38.9°F3.8°C 37.8°F3.2°C 96% 3.0 mph NE4.8 kmh NE 5.0 mph8.0 kmh 29.64 in1003.7 mb 0.00 in0.0 mm 0.00 in0.0 mm 0.00 in0.0 mm
03:05 AM 39.0°F3.9°C 37.9°F3.3°C 96% 4.0 mph NE6.4 kmh NE 5.0 mph8.0 kmh 29.65 in1004.1 mb 0.00 in0.0 mm 0.00 in0.0 mm 0.00 in0.0 mm
03:10 AM 39.0°F3.9°C 37.9°F3.3°C 96% 2.0 mph NE3.2 kmh NE 4.0 mph6.4 kmh 29.65 in1004.1 mb 0.00 in0.0 mm 0.00 in0.0 mm 0.00 in0.0 mm
03:15 AM 39.1°F3.9°C 38.0°F3.3°C 96% 1.0 mph NE1.6 kmh NE 5.0 mph8.0 kmh 29.65 in1004.1 mb 0.00 in0.0 mm 0.00 in0.0 mm 0.00 in0.0 mm
03:20 AM 39.1°F3.9°C 38.0°F3.3°C 96% 4.0 mph NE6.4 kmh NE 6.0 mph9.7 kmh 29.64 in1003.7 mb 0.00 in0.0 mm 0.00 in0.0 mm 0.00 in0.0 mm
03:25 AM 39.1°F3.9°C 38.0°F3.3°C 96% 2.0 mph NNE3.2 kmh NNE 6.0 mph9.7 kmh 29.64 in1003.7 mb 0.00 in0.0 mm 0.00 in0.0 mm 0.00 in0.0 mm
03:30 AM 39.2°F4.0°C 38.1°F3.4°C 96% 4.0 mph NNE6.4 kmh NNE 6.0 mph9.7 kmh 29.63 in1003.4 mb 0.00 in0.0 mm 0.00 in0.0 mm 0.00 in0.0 mm
03:35 AM 39.2°F4.0°C 38.1°F3.4°C 96% 5.0 mph NE8.0 kmh NE 8.0 mph12.9 kmh 29.63 in1003.4 mb 0.00 in0.0 mm 0.00 in0.0 mm 0.00 in0.0 mm
03:40 AM 39.2°F4.0°C 38.1°F3.4°C 96% 5.0 mph NNE8.0 kmh NNE 7.0 mph11.3 kmh 29.63 in1003.4 mb 0.00 in0.0 mm 0.00 in0.0 mm 0.00 in0.0 mm
03:45 AM 39.2°F4.0°C 38.1°F3.4°C 96% 5.0 mph NE8.0 kmh NE 7.0 mph11.3 kmh 29.63 in1003.4 mb 0.00 in0.0 mm 0.00 in0.0 mm 0.00 in0.0 mm
03:50 AM 39.1°F3.9°C 38.0°F3.3°C 96% 4.0 mph N6.4 kmh N 6.0 mph9.7 kmh 29.64 in1003.7 mb 0.00 in0.0 mm 0.00 in0.0 mm 0.00 in0.0 mm
03:55 AM 39.1°F3.9°C 38.0°F3.3°C 96% 4.0 mph NNE6.4 kmh NNE 7.0 mph11.3 kmh 29.63 in1003.4 mb 0.00 in0.0 mm 0.00 in0.0 mm 0.00 in0.0 mm
04:00 AM 39.1°F3.9°C 38.0°F3.3°C 96% 2.0 mph NE3.2 kmh NE 7.0 mph11.3 kmh 29.63 in1003.4 mb 0.00 in0.0 mm 0.00 in0.0 mm 0.00 in0.0 mm
04:05 AM 39.1°F3.9°C 38.0°F3.3°C 96% 3.0 mph NE4.8 kmh NE 6.0 mph9.7 kmh 29.63 in1003.4 mb 0.00 in0.0 mm 0.00 in0.0 mm 0.00 in0.0 mm
04:10 AM 39.2°F4.0°C 38.1°F3.4°C 96% 4.0 mph NE6.4 kmh NE 5.0 mph8.0 kmh 29.64 in1003.7 mb 0.00 in0.0 mm 0.00 in0.0 mm 0.00 in0.0 mm
04:15 AM 39.2°F4.0°C 38.1°F3.4°C 96% 3.0 mph NE4.8 kmh NE 6.0 mph9.7 kmh 29.63 in1003.4 mb 0.00 in0.0 mm 0.00 in0.0 mm 0.00 in0.0 mm
04:20 AM 39.3°F4.1°C 38.5°F3.6°C 97% 6.0 mph NE9.7 kmh NE 7.0 mph11.3 kmh 29.63 in1003.4 mb 0.00 in0.0 mm 0.00 in0.0 mm 0.00 in0.0 mm
04:25 AM 39.3°F4.1°C 38.5°F3.6°C 97% 6.0 mph ENE9.7 kmh ENE 8.0 mph12.9 kmh 29.62 in1003.0 mb 0.00 in0.0 mm 0.00 in0.0 mm 0.00 in0.0 mm
04:30 AM 39.3°F4.1°C 38.5°F3.6°C 97% 2.0 mph NE3.2 kmh NE 7.0 mph11.3 kmh 29.63 in1003.4 mb 0.00 in0.0 mm 0.00 in0.0 mm 0.00 in0.0 mm
04:35 AM 39.4°F4.1°C 38.6°F3.7°C 97% 4.0 mph NE6.4 kmh NE 6.0 mph9.7 kmh 29.63 in1003.4 mb 0.00 in0.0 mm 0.00 in0.0 mm 0.00 in0.0 mm
04:40 AM 39.4°F4.1°C 38.6°F3.7°C 97% 5.0 mph ENE8.0 kmh ENE 9.0 mph14.5 kmh 29.63 in1003.4 mb 0.00 in0.0 mm 0.00 in0.0 mm 0.00 in0.0 mm
04:45 AM 39.4°F4.1°C 38.6°F3.7°C 97% 1.0 mph NE1.6 kmh NE 7.0 mph11.3 kmh 29.62 in1003.0 mb 0.00 in0.0 mm 0.00 in0.0 mm 0.00 in0.0 mm
04:50 AM 39.5°F4.2°C 38.7°F3.7°C 97% 3.0 mph E4.8 kmh E 6.0 mph9.7 kmh 29.61 in1002.7 mb 0.00 in0.0 mm 0.00 in0.0 mm 0.00 in0.0 mm
04:55 AM 39.6°F4.2°C 38.8°F3.8°C 97% 2.0 mph E3.2 kmh E 9.0 mph14.5 kmh 29.61 in1002.7 mb 0.00 in0.0 mm 0.00 in0.0 mm 0.00 in0.0 mm
05:00 AM 39.7°F4.3°C 38.9°F3.8°C 97% 5.0 mph ENE8.0 kmh ENE 5.0 mph8.0 kmh 29.62 in1003.0 mb 0.00 in0.0 mm 0.00 in0.0 mm 0.00 in0.0 mm
05:05 AM 39.8°F4.3°C 39.0°F3.9°C 97% 1.0 mph ENE1.6 kmh ENE 6.0 mph9.7 kmh 29.62 in1003.0 mb 0.00 in0.0 mm 0.00 in0.0 mm 0.00 in0.0 mm
05:10 AM 39.8°F4.3°C 39.0°F3.9°C 97% 2.0 mph ENE3.2 kmh ENE 5.0 mph8.0 kmh 29.61 in1002.7 mb 0.00 in0.0 mm 0.00 in0.0 mm 0.00 in0.0 mm
05:15 AM 39.8°F4.3°C 39.0°F3.9°C 97% 3.0 mph E4.8 kmh E 7.0 mph11.3 kmh 29.61 in1002.7 mb 0.00 in0.0 mm 0.00 in0.0 mm 0.00 in0.0 mm
05:20 AM 39.8°F4.3°C 39.0°F3.9°C 97% 2.0 mph E3.2 kmh E 10.0 mph16.1 kmh 29.61 in1002.7 mb 0.00 in0.0 mm 0.00 in0.0 mm 0.00 in0.0 mm
05:25 AM 39.8°F4.3°C 39.0°F3.9°C 97% 5.0 mph E8.0 kmh E 11.0 mph17.7 kmh 29.61 in1002.7 mb 0.00 in0.0 mm 0.00 in0.0 mm 0.00 in0.0 mm
05:30 AM 39.8°F4.3°C 39.0°F3.9°C 97% 6.0 mph ENE9.7 kmh ENE 8.0 mph12.9 kmh 29.60 in1002.4 mb 0.00 in0.0 mm 0.00 in0.0 mm 0.00 in0.0 mm
05:35 AM 39.9°F4.4°C 39.1°F3.9°C 97% 7.0 mph ENE11.3 kmh ENE 9.0 mph14.5 kmh 29.61 in1002.7 mb 0.00 in0.0 mm 0.00 in0.0 mm 0.00 in0.0 mm
05:40 AM 40.0°F4.4°C 39.2°F4.0°C 97% 2.0 mph E3.2 kmh E 10.0 mph16.1 kmh 29.60 in1002.4 mb 0.00 in0.0 mm 0.00 in0.0 mm 0.00 in0.0 mm
05:45 AM 40.0°F4.4°C 39.2°F4.0°C 97% 5.0 mph NE8.0 kmh NE 7.0 mph11.3 kmh 29.60 in1002.4 mb 0.00 in0.0 mm 0.00 in0.0 mm 0.00 in0.0 mm
05:50 AM 40.0°F4.4°C 39.2°F4.0°C 97% 2.0 mph N3.2 kmh N 6.0 mph9.7 kmh 29.60 in1002.4 mb 0.00 in0.0 mm 0.00 in0.0 mm 0.00 in0.0 mm
05:55 AM 40.0°F4.4°C 39.2°F4.0°C 97% 4.0 mph E6.4 kmh E 9.0 mph14.5 kmh 29.60 in1002.4 mb 0.00 in0.0 mm 0.00 in0.0 mm 0.00 in0.0 mm
06:00 AM 40.0°F4.4°C 39.2°F4.0°C 97% 4.0 mph E6.4 kmh E 6.0 mph9.7 kmh 29.59 in1002.0 mb 0.00 in0.0 mm 0.00 in0.0 mm 0.00 in0.0 mm
06:05 AM 40.0°F4.4°C 39.2°F4.0°C 97% 3.0 mph E4.8 kmh E 6.0 mph9.7 kmh 29.59 in1002.0 mb 0.00 in0.0 mm 0.00 in0.0 mm 0.00 in0.0 mm
06:10 AM 40.1°F4.5°C 39.3°F4.1°C 97% 4.0 mph NE6.4 kmh NE 7.0 mph11.3 kmh 29.60 in1002.4 mb 0.00 in0.0 mm 0.00 in0.0 mm 0.00 in0.0 mm
06:15 AM 40.1°F4.5°C 39.3°F4.1°C 97% 2.0 mph NE3.2 kmh NE 7.0 mph11.3 kmh 29.60 in1002.4 mb 0.00 in0.0 mm 0.00 in0.0 mm 0.00 in0.0 mm
06:20 AM 40.1°F4.5°C 39.3°F4.1°C 97% 4.0 mph NE6.4 kmh NE 5.0 mph8.0 kmh 29.60 in1002.4 mb 0.00 in0.0 mm 0.00 in0.0 mm 0.00 in0.0 mm
06:25 AM 40.1°F4.5°C 39.3°F4.1°C 97% 4.0 mph NNE6.4 kmh NNE 7.0 mph11.3 kmh 29.59 in1002.0 mb 0.00 in0.0 mm 0.00 in0.0 mm 0.00 in0.0 mm
06:30 AM 40.2°F4.6°C 39.4°F4.1°C 97% 5.0 mph NE8.0 kmh NE 8.0 mph12.9 kmh 29.59 in1002.0 mb 0.00 in0.0 mm 0.00 in0.0 mm 0.00 in0.0 mm
06:35 AM 40.3°F4.6°C 39.5°F4.2°C 97% 4.0 mph ENE6.4 kmh ENE 7.0 mph11.3 kmh 29.59 in1002.0 mb 0.00 in0.0 mm 0.00 in0.0 mm 0.00 in0.0 mm
06:40 AM 40.2°F4.6°C 39.4°F4.1°C 97% 5.0 mph NE8.0 kmh NE 9.0 mph14.5 kmh 29.58 in1001.7 mb 0.00 in0.0 mm 0.00 in0.0 mm 0.00 in0.0 mm
06:45 AM 40.3°F4.6°C 39.5°F4.2°C 97% 4.0 mph NE6.4 kmh NE 7.0 mph11.3 kmh 29.58 in1001.7 mb 0.00 in0.0 mm 0.00 in0.0 mm 0.00 in0.0 mm
06:50 AM 40.3°F4.6°C 39.5°F4.2°C 97% 5.0 mph NE8.0 kmh NE 6.0 mph9.7 kmh 29.58 in1001.7 mb 0.00 in0.0 mm 0.00 in0.0 mm 0.00 in0.0 mm
06:55 AM 40.4°F4.7°C 39.6°F4.2°C 97% 3.0 mph NNE4.8 kmh NNE 6.0 mph9.7 kmh 29.59 in1002.0 mb 0.00 in0.0 mm 0.00 in0.0 mm 0.00 in0.0 mm
07:00 AM 40.5°F4.7°C 39.7°F4.3°C 97% 4.0 mph NNE6.4 kmh NNE 7.0 mph11.3 kmh 29.58 in1001.7 mb 0.00 in0.0 mm 0.00 in0.0 mm 0.00 in0.0 mm
07:05 AM 40.5°F4.7°C 39.7°F4.3°C 97% 5.0 mph NE8.0 kmh NE 9.0 mph14.5 kmh 29.58 in1001.7 mb 0.00 in0.0 mm 0.00 in0.0 mm 0.00 in0.0 mm
07:10 AM 40.5°F4.7°C 39.7°F4.3°C 97% 3.0 mph NE4.8 kmh NE 7.0 mph11.3 kmh 29.58 in1001.7 mb 0.00 in0.0 mm 0.00 in0.0 mm 0.00 in0.0 mm
07:15 AM 40.5°F4.7°C 39.7°F4.3°C 97% 5.0 mph NE8.0 kmh NE 7.0 mph11.3 kmh 29.58 in1001.7 mb 0.00 in0.0 mm 0.00 in0.0 mm 0.00 in0.0 mm
07:20 AM 40.6°F4.8°C 39.8°F4.3°C 97% 6.0 mph NE9.7 kmh NE 9.0 mph14.5 kmh 29.58 in1001.7 mb 0.00 in0.0 mm 0.00 in0.0 mm 0.00 in0.0 mm
07:25 AM 40.6°F4.8°C 39.8°F4.3°C 97% 4.0 mph NNE6.4 kmh NNE 8.0 mph12.9 kmh 29.58 in1001.7 mb 0.00 in0.0 mm 0.00 in0.0 mm 0.00 in0.0 mm
07:30 AM 40.7°F4.8°C 39.9°F4.4°C 97% 4.0 mph N6.4 kmh N 8.0 mph12.9 kmh 29.57 in1001.4 mb 0.00 in0.0 mm 0.00 in0.0 mm 0.00 in0.0 mm
07:35 AM 40.7°F4.8°C 39.9°F4.4°C 97% 5.0 mph NNE8.0 kmh NNE 6.0 mph9.7 kmh 29.57 in1001.4 mb 0.00 in0.0 mm 0.00 in0.0 mm 0.00 in0.0 mm
07:40 AM 40.7°F4.8°C 39.9°F4.4°C 97% 5.0 mph NE8.0 kmh NE 9.0 mph14.5 kmh 29.57 in1001.4 mb 0.00 in0.0 mm 0.00 in0.0 mm 0.00 in0.0 mm
07:45 AM 40.9°F4.9°C 40.1°F4.5°C 97% 4.0 mph NE6.4 kmh NE 7.0 mph11.3 kmh 29.56 in1001.0 mb 0.00 in0.0 mm 0.00 in0.0 mm 0.00 in0.0 mm
07:50 AM 40.9°F4.9°C 40.1°F4.5°C 97% 6.0 mph NE9.7 kmh NE 7.0 mph11.3 kmh 29.56 in1001.0 mb 0.00 in0.0 mm 0.00 in0.0 mm 0.00 in0.0 mm
07:55 AM 41.0°F5.0°C 40.2°F4.6°C 97% 4.0 mph NE6.4 kmh NE 8.0 mph12.9 kmh 29.56 in1001.0 mb 0.00 in0.0 mm 0.00 in0.0 mm 0.00 in0.0 mm
08:00 AM 41.1°F5.1°C 40.3°F4.6°C 97% 3.0 mph NE4.8 kmh NE 10.0 mph16.1 kmh 29.55 in1000.7 mb 0.00 in0.0 mm 0.00 in0.0 mm 0.00 in0.0 mm
08:05 AM 41.1°F5.1°C 40.3°F4.6°C 97% 3.0 mph NE4.8 kmh NE 7.0 mph11.3 kmh 29.55 in1000.7 mb 0.00 in0.0 mm 0.00 in0.0 mm 0.00 in0.0 mm
08:10 AM 41.2°F5.1°C 40.4°F4.7°C 97% 3.0 mph ENE4.8 kmh ENE 7.0 mph11.3 kmh 29.55 in1000.7 mb 0.00 in0.0 mm 0.00 in0.0 mm 0.00 in0.0 mm
08:15 AM 41.4°F5.2°C 40.6°F4.8°C 97% 1.0 mph E1.6 kmh E 5.0 mph8.0 kmh 29.56 in1001.0 mb 0.00 in0.0 mm 0.00 in0.0 mm 0.00 in0.0 mm
08:20 AM 41.3°F5.2°C 40.5°F4.7°C 97% 3.0 mph ESE4.8 kmh ESE 10.0 mph16.1 kmh 29.56 in1001.0 mb 0.00 in0.0 mm 0.00 in0.0 mm 0.00 in0.0 mm
08:25 AM 41.3°F5.2°C 40.5°F4.7°C 97% 3.0 mph ENE4.8 kmh ENE 6.0 mph9.7 kmh 29.56 in1001.0 mb 0.00 in0.0 mm 0.00 in0.0 mm 0.00 in0.0 mm
08:30 AM 41.4°F5.2°C 40.6°F4.8°C 97% 4.0 mph NE6.4 kmh NE 6.0 mph9.7 kmh 29.55 in1000.7 mb 0.00 in0.0 mm 0.00 in0.0 mm 0.00 in0.0 mm
08:35 AM 41.4°F5.2°C 40.6°F4.8°C 97% 3.0 mph NE4.8 kmh NE 8.0 mph12.9 kmh 29.55 in1000.7 mb 0.00 in0.0 mm 0.00 in0.0 mm 0.00 in0.0 mm
08:40 AM 41.4°F5.2°C 40.6°F4.8°C 97% 2.0 mph ESE3.2 kmh ESE 8.0 mph12.9 kmh 29.55 in1000.7 mb 0.00 in0.0 mm 0.00 in0.0 mm 0.00 in0.0 mm
08:45 AM 41.5°F5.3°C 40.7°F4.8°C 97% 3.0 mph ESE4.8 kmh ESE 7.0 mph11.3 kmh 29.54 in1000.3 mb 0.00 in0.0 mm 0.00 in0.0 mm 0.00 in0.0 mm
08:50 AM 41.5°F5.3°C 40.7°F4.8°C 97% 2.0 mph E3.2 kmh E 6.0 mph9.7 kmh 29.54 in1000.3 mb 0.00 in0.0 mm 0.00 in0.0 mm 0.00 in0.0 mm
08:55 AM 41.6°F5.3°C 40.8°F4.9°C 97% Calm Calm 5.0 mph8.0 kmh 29.54 in1000.3 mb 0.00 in0.0 mm 0.00 in0.0 mm 0.00 in0.0 mm
09:00 AM 41.6°F5.3°C 40.8°F4.9°C 97% 5.0 mph E8.0 kmh E 7.0 mph11.3 kmh 29.54 in1000.3 mb 0.00 in0.0 mm 0.00 in0.0 mm 0.00 in0.0 mm
09:05 AM 41.6°F5.3°C 40.8°F4.9°C 97% 3.0 mph ENE4.8 kmh ENE 6.0 mph9.7 kmh 29.54 in1000.3 mb 0.00 in0.0 mm 0.00 in0.0 mm 0.00 in0.0 mm
09:10 AM 41.6°F5.3°C 40.8°F4.9°C 97% 4.0 mph ENE6.4 kmh ENE 8.0 mph12.9 kmh 29.53 in1000.0 mb 0.00 in0.0 mm 0.00 in0.0 mm 0.00 in0.0 mm
09:15 AM 41.6°F5.3°C 40.8°F4.9°C 97% 1.0 mph NE1.6 kmh NE 7.0 mph11.3 kmh 29.53 in1000.0 mb 0.00 in0.0 mm 0.00 in0.0 mm 0.00 in0.0 mm
09:20 AM 41.7°F5.4°C 40.9°F4.9°C 97% 4.0 mph E6.4 kmh E 9.0 mph14.5 kmh 29.53 in1000.0 mb 0.00 in0.0 mm 0.00 in0.0 mm 0.00 in0.0 mm
09:25 AM 41.9°F5.5°C 41.1°F5.1°C 97% 4.0 mph E6.4 kmh E 7.0 mph11.3 kmh 29.53 in1000.0 mb 0.00 in0.0 mm 0.00 in0.0 mm 0.00 in0.0 mm
09:30 AM 42.0°F5.6°C 41.2°F5.1°C 97% 5.0 mph E8.0 kmh E 7.0 mph11.3 kmh 29.53 in1000.0 mb 0.00 in0.0 mm 0.00 in0.0 mm 0.00 in0.0 mm
09:35 AM 41.9°F5.5°C 41.1°F5.1°C 97% 6.0 mph NNE9.7 kmh NNE 10.0 mph16.1 kmh 29.52 in999.7 mb 0.00 in0.0 mm 0.00 in0.0 mm 0.00 in0.0 mm
09:40 AM 42.0°F5.6°C 41.2°F5.1°C 97% 6.0 mph E9.7 kmh E 7.0 mph11.3 kmh 29.52 in999.7 mb 0.00 in0.0 mm 0.00 in0.0 mm 0.00 in0.0 mm
09:45 AM 42.0°F5.6°C 41.2°F5.1°C 97% 3.0 mph ESE4.8 kmh ESE 6.0 mph9.7 kmh 29.51 in999.3 mb 0.00 in0.0 mm 0.00 in0.0 mm 0.00 in0.0 mm
09:50 AM 42.1°F5.6°C 41.3°F5.2°C 97% 4.0 mph E6.4 kmh E 11.0 mph17.7 kmh 29.51 in999.3 mb 0.00 in0.0 mm 0.00 in0.0 mm 0.00 in0.0 mm
09:55 AM 42.2°F5.7°C 41.4°F5.2°C 97% 5.0 mph SE8.0 kmh SE 9.0 mph14.5 kmh 29.51 in999.3 mb 0.00 in0.0 mm 0.00 in0.0 mm 0.00 in0.0 mm
10:00 AM 42.2°F5.7°C 41.4°F5.2°C 97% 3.0 mph ESE4.8 kmh ESE 6.0 mph9.7 kmh 29.51 in999.3 mb 0.00 in0.0 mm 0.00 in0.0 mm 0.00 in0.0 mm
10:05 AM 42.2°F5.7°C 41.4°F5.2°C 97% 6.0 mph E9.7 kmh E 7.0 mph11.3 kmh 29.51 in999.3 mb 0.00 in0.0 mm 0.00 in0.0 mm 0.00 in0.0 mm
10:10 AM 42.4°F5.8°C 41.6°F5.3°C 97% 4.0 mph E6.4 kmh E 11.0 mph17.7 kmh 29.52 in999.7 mb 0.00 in0.0 mm 0.00 in0.0 mm 0.00 in0.0 mm
10:15 AM 42.4°F5.8°C 41.6°F5.3°C 97% 5.0 mph NE8.0 kmh NE 7.0 mph11.3 kmh 29.52 in999.7 mb 0.00 in0.0 mm 0.00 in0.0 mm 0.00 in0.0 mm
10:20 AM 42.4°F5.8°C 41.6°F5.3°C 97% 3.0 mph ESE4.8 kmh ESE 9.0 mph14.5 kmh 29.52 in999.7 mb 0.00 in0.0 mm 0.00 in0.0 mm 0.00 in0.0 mm
10:25 AM 42.5°F5.8°C 41.7°F5.4°C 97% 3.0 mph E4.8 kmh E 9.0 mph14.5 kmh 29.51 in999.3 mb 0.00 in0.0 mm 0.00 in0.0 mm 0.00 in0.0 mm
10:30 AM 42.6°F5.9°C 41.8°F5.4°C 97% 2.0 mph NE3.2 kmh NE 6.0 mph9.7 kmh 29.51 in999.3 mb 0.00 in0.0 mm 0.00 in0.0 mm 0.00 in0.0 mm
10:35 AM 42.7°F5.9°C 41.9°F5.5°C 97% 5.0 mph ENE8.0 kmh ENE 9.0 mph14.5 kmh 29.51 in999.3 mb 0.00 in0.0 mm 0.00 in0.0 mm 0.00 in0.0 mm
10:40 AM 42.6°F5.9°C 41.8°F5.4°C 97% 4.0 mph ENE6.4 kmh ENE 12.0 mph19.3 kmh 29.49 in998.6 mb 0.00 in0.0 mm 0.00 in0.0 mm 0.00 in0.0 mm
10:45 AM 42.5°F5.8°C 41.7°F5.4°C 97% 6.0 mph E9.7 kmh E 12.0 mph19.3 kmh 29.48 in998.3 mb 0.00 in0.0 mm 0.00 in0.0 mm 0.00 in0.0 mm
10:50 AM 42.7°F5.9°C 41.9°F5.5°C 97% 4.0 mph E6.4 kmh E 10.0 mph16.1 kmh 29.49 in998.6 mb 0.00 in0.0 mm 0.00 in0.0 mm 0.00 in0.0 mm
10:55 AM 42.7°F5.9°C 41.9°F5.5°C 97% 3.0 mph E4.8 kmh E 11.0 mph17.7 kmh 29.50 in999.0 mb 0.00 in0.0 mm 0.00 in0.0 mm 0.00 in0.0 mm
11:00 AM 42.7°F5.9°C 41.9°F5.5°C 97% 3.0 mph NE4.8 kmh NE 10.0 mph16.1 kmh 29.50 in999.0 mb 0.00 in0.0 mm 0.00 in0.0 mm 0.00 in0.0 mm
11:05 AM 42.9°F6.1°C 42.1°F5.6°C 97% 5.0 mph NE8.0 kmh NE 9.0 mph14.5 kmh 29.50 in999.0 mb 0.00 in0.0 mm 0.00 in0.0 mm 0.00 in0.0 mm
11:10 AM 43.1°F6.2°C 42.3°F5.7°C 97% 4.0 mph ENE6.4 kmh ENE 8.0 mph12.9 kmh 29.51 in999.3 mb 0.00 in0.0 mm 0.00 in0.0 mm 0.00 in0.0 mm
11:15 AM 43.2°F6.2°C 42.4°F5.8°C 97% 3.0 mph ESE4.8 kmh ESE 9.0 mph14.5 kmh 29.51 in999.3 mb 0.00 in0.0 mm 0.00 in0.0 mm 0.00 in0.0 mm
11:20 AM 43.3°F6.3°C 42.5°F5.8°C 97% 5.0 mph ESE8.0 kmh ESE 11.0 mph17.7 kmh 29.50 in999.0 mb 0.00 in0.0 mm 0.00 in0.0 mm 0.00 in0.0 mm
11:25 AM 43.4°F6.3°C 42.6°F5.9°C 97% 9.0 mph E14.5 kmh E 12.0 mph19.3 kmh 29.51 in999.3 mb 0.00 in0.0 mm 0.00 in0.0 mm 0.00 in0.0 mm
11:30 AM 43.5°F6.4°C 42.7°F5.9°C 97% 9.0 mph ESE14.5 kmh ESE 14.0 mph22.5 kmh 29.51 in999.3 mb 0.00 in0.0 mm 0.00 in0.0 mm 0.00 in0.0 mm
11:35 AM 43.5°F6.4°C 42.7°F5.9°C 97% 6.0 mph E9.7 kmh E 10.0 mph16.1 kmh 29.51 in999.3 mb 0.00 in0.0 mm 0.00 in0.0 mm 0.00 in0.0 mm
11:40 AM 43.6°F6.4°C 42.8°F6.0°C 97% 3.0 mph ESE4.8 kmh ESE 9.0 mph14.5 kmh 29.50 in999.0 mb 0.00 in0.0 mm 0.00 in0.0 mm 0.00 in0.0 mm
11:45 AM 43.6°F6.4°C 42.8°F6.0°C 97% 4.0 mph NE6.4 kmh NE 10.0 mph16.1 kmh 29.49 in998.6 mb 0.00 in0.0 mm 0.00 in0.0 mm 0.00 in0.0 mm
11:50 AM 43.6°F6.4°C 42.8°F6.0°C 97% 9.0 mph NE14.5 kmh NE 10.0 mph16.1 kmh 29.48 in998.3 mb 0.00 in0.0 mm 0.00 in0.0 mm 0.00 in0.0 mm
11:55 AM 43.5°F6.4°C 42.7°F5.9°C 97% 7.0 mph ENE11.3 kmh ENE 11.0 mph17.7 kmh 29.47 in998.0 mb 0.00 in0.0 mm 0.00 in0.0 mm 0.00 in0.0 mm
12:00 PM 43.7°F6.5°C 42.9°F6.1°C 97% 7.0 mph ENE11.3 kmh ENE 11.0 mph17.7 kmh 29.47 in998.0 mb 0.00 in0.0 mm 0.00 in0.0 mm 0.00 in0.0 mm
12:05 PM 43.8°F6.6°C 42.7°F5.9°C 96% 4.0 mph N6.4 kmh N 10.0 mph16.1 kmh 29.46 in997.6 mb 0.00 in0.0 mm 0.00 in0.0 mm 0.00 in0.0 mm
12:10 PM 44.0°F6.7°C 42.9°F6.1°C 96% 6.0 mph NE9.7 kmh NE 11.0 mph17.7 kmh 29.46 in997.6 mb 0.00 in0.0 mm 0.00 in0.0 mm 0.00 in0.0 mm
12:15 PM 43.9°F6.6°C 43.1°F6.2°C 97% 8.0 mph ENE12.9 kmh ENE 11.0 mph17.7 kmh 29.45 in997.3 mb 0.00 in0.0 mm 0.00 in0.0 mm 0.00 in0.0 mm
12:20 PM 43.9°F6.6°C 42.8°F6.0°C 96% 4.0 mph NE6.4 kmh NE 10.0 mph16.1 kmh 29.45 in997.3 mb 0.00 in0.0 mm 0.00 in0.0 mm 0.00 in0.0 mm
12:25 PM 44.0°F6.7°C 43.2°F6.2°C 97% 7.0 mph E11.3 kmh E 11.0 mph17.7 kmh 29.45 in997.3 mb 0.00 in0.0 mm 0.00 in0.0 mm 0.00 in0.0 mm
12:30 PM 44.0°F6.7°C 42.9°F6.1°C 96% 5.0 mph NE8.0 kmh NE 9.0 mph14.5 kmh 29.44 in997.0 mb 0.00 in0.0 mm 0.00 in0.0 mm 0.00 in0.0 mm
12:35 PM 44.1°F6.7°C 43.0°F6.1°C 96% 3.0 mph ENE4.8 kmh ENE 11.0 mph17.7 kmh 29.44 in997.0 mb 0.00 in0.0 mm 0.00 in0.0 mm 0.00 in0.0 mm
12:40 PM 44.0°F6.7°C 42.9°F6.1°C 96% 9.0 mph ENE14.5 kmh ENE 10.0 mph16.1 kmh 29.44 in997.0 mb 0.00 in0.0 mm 0.00 in0.0 mm 0.00 in0.0 mm
12:45 PM 44.3°F6.8°C 43.2°F6.2°C 96% 5.0 mph NE8.0 kmh NE 11.0 mph17.7 kmh 29.45 in997.3 mb 0.00 in0.0 mm 0.00 in0.0 mm 0.00 in0.0 mm
12:50 PM 44.3°F6.8°C 43.2°F6.2°C 96% 4.0 mph SE6.4 kmh SE 10.0 mph16.1 kmh 29.45 in997.3 mb 0.00 in0.0 mm 0.00 in0.0 mm 0.00 in0.0 mm
12:55 PM 44.6°F7.0°C 43.5°F6.4°C 96% 12.0 mph E19.3 kmh E 12.0 mph19.3 kmh 29.44 in997.0 mb 0.00 in0.0 mm 0.00 in0.0 mm 0.00 in0.0 mm
01:00 PM 44.6°F7.0°C 43.5°F6.4°C 96% 3.0 mph ENE4.8 kmh ENE 10.0 mph16.1 kmh 29.43 in996.6 mb 0.00 in0.0 mm 0.00 in0.0 mm 0.00 in0.0 mm
01:05 PM 44.8°F7.1°C 43.7°F6.5°C 96% 3.0 mph E4.8 kmh E 9.0 mph14.5 kmh 29.42 in996.3 mb 0.00 in0.0 mm 0.00 in0.0 mm 0.00 in0.0 mm
01:10 PM 44.9°F7.2°C 43.8°F6.6°C 96% 2.0 mph E3.2 kmh E 9.0 mph14.5 kmh 29.41 in995.9 mb 0.00 in0.0 mm 0.00 in0.0 mm 0.00 in0.0 mm
01:15 PM 45.0°F7.2°C 43.9°F6.6°C 96% 5.0 mph ESE8.0 kmh ESE 9.0 mph14.5 kmh 29.42 in996.3 mb 0.00 in0.0 mm 0.00 in0.0 mm 0.00 in0.0 mm
01:20 PM 45.2°F7.3°C 44.1°F6.7°C 96% 5.0 mph E8.0 kmh E 10.0 mph16.1 kmh 29.42 in996.3 mb 0.00 in0.0 mm 0.00 in0.0 mm 0.00 in0.0 mm
01:25 PM 45.5°F7.5°C 44.4°F6.9°C 96% 8.0 mph E12.9 kmh E 12.0 mph19.3 kmh 29.41 in995.9 mb 0.00 in0.0 mm 0.00 in0.0 mm 0.00 in0.0 mm
01:30 PM 45.7°F7.6°C 44.3°F6.8°C 95% 4.0 mph E6.4 kmh E 9.0 mph14.5 kmh 29.41 in995.9 mb 0.00 in0.0 mm 0.00 in0.0 mm 0.00 in0.0 mm
01:35 PM 46.1°F7.8°C 45.0°F7.2°C 96% 5.0 mph E8.0 kmh E 7.0 mph11.3 kmh 29.41 in995.9 mb 0.00 in0.0 mm 0.00 in0.0 mm 0.00 in0.0 mm
01:40 PM 46.3°F7.9°C 44.9°F7.2°C 95% 3.0 mph E4.8 kmh E 12.0 mph19.3 kmh 29.41 in995.9 mb 0.00 in0.0 mm 0.00 in0.0 mm 0.00 in0.0 mm
01:45 PM 46.7°F8.2°C 45.3°F7.4°C 95% 4.0 mph SE6.4 kmh SE 10.0 mph16.1 kmh 29.40 in995.6 mb 0.00 in0.0 mm 0.00 in0.0 mm 0.00 in0.0 mm
01:50 PM 47.2°F8.4°C 45.8°F7.7°C 95% 5.0 mph ESE8.0 kmh ESE 7.0 mph11.3 kmh 29.39 in995.3 mb 0.00 in0.0 mm 0.00 in0.0 mm 0.00 in0.0 mm
01:55 PM 47.6°F8.7°C 45.9°F7.7°C 94% 2.0 mph E3.2 kmh E 7.0 mph11.3 kmh 29.39 in995.3 mb 0.00 in0.0 mm 0.00 in0.0 mm 0.00 in0.0 mm
02:00 PM 48.1°F8.9°C 46.4°F8.0°C 94% Calm Calm 3.0 mph4.8 kmh 29.39 in995.3 mb 0.00 in0.0 mm 0.00 in0.0 mm 0.00 in0.0 mm
02:05 PM 48.3°F9.1°C 46.3°F7.9°C 93% 2.0 mph NE3.2 kmh NE 3.0 mph4.8 kmh 29.39 in995.3 mb 0.00 in0.0 mm 0.00 in0.0 mm 0.00 in0.0 mm
02:10 PM 48.4°F9.1°C 46.4°F8.0°C 93% Calm Calm 2.0 mph3.2 kmh 29.38 in994.9 mb 0.00 in0.0 mm 0.00 in0.0 mm 0.00 in0.0 mm
02:15 PM 48.5°F9.2°C 46.2°F7.9°C 92% 5.0 mph N8.0 kmh N 6.0 mph9.7 kmh 29.37 in994.6 mb 0.00 in0.0 mm 0.00 in0.0 mm 0.00 in0.0 mm
02:20 PM 48.3°F9.1°C 46.0°F7.8°C 92% 2.0 mph ENE3.2 kmh ENE 5.0 mph8.0 kmh 29.38 in994.9 mb 0.00 in0.0 mm 0.00 in0.0 mm 0.00 in0.0 mm
05:30 PM 49.2°F9.6°C 47.2°F8.4°C 93% 6.0 mph SE9.7 kmh SE 9.0 mph14.5 kmh 29.30 in992.2 mb 0.00 in0.0 mm 0.00 in0.0 mm 0.00 in0.0 mm
05:35 PM 49.4°F9.7°C 47.4°F8.6°C 93% 7.0 mph ESE11.3 kmh ESE 9.0 mph14.5 kmh 29.30 in992.2 mb 0.00 in0.0 mm 0.00 in0.0 mm 0.00 in0.0 mm
05:40 PM 49.8°F9.9°C 47.8°F8.8°C 93% 3.0 mph S4.8 kmh S 11.0 mph17.7 kmh 29.30 in992.2 mb 0.00 in0.0 mm 0.00 in0.0 mm 0.00 in0.0 mm
05:45 PM 50.1°F10.1°C 48.1°F8.9°C 93% 5.0 mph SSW8.0 kmh SSW 6.0 mph9.7 kmh 29.30 in992.2 mb 0.00 in0.0 mm 0.00 in0.0 mm 0.00 in0.0 mm
05:50 PM 50.2°F10.1°C 47.9°F8.8°C 92% 1.0 mph S1.6 kmh S 7.0 mph11.3 kmh 29.30 in992.2 mb 0.00 in0.0 mm 0.00 in0.0 mm 0.00 in0.0 mm
05:55 PM 50.2°F10.1°C 47.9°F8.8°C 92% 2.0 mph SE3.2 kmh SE 6.0 mph9.7 kmh 29.30 in992.2 mb 0.00 in0.0 mm 0.00 in0.0 mm 0.00 in0.0 mm
06:00 PM 50.1°F10.1°C 47.8°F8.8°C 92% 3.0 mph SE4.8 kmh SE 6.0 mph9.7 kmh 29.30 in992.2 mb 0.00 in0.0 mm 0.00 in0.0 mm 0.00 in0.0 mm
06:05 PM 50.0°F10.0°C 48.0°F8.9°C 93% 2.0 mph E3.2 kmh E 7.0 mph11.3 kmh 29.29 in991.9 mb 0.00 in0.0 mm 0.00 in0.0 mm 0.00 in0.0 mm
06:10 PM 50.0°F10.0°C 48.0°F8.9°C 93% 4.0 mph ESE6.4 kmh ESE 6.0 mph9.7 kmh 29.27 in991.2 mb 0.00 in0.0 mm 0.00 in0.0 mm 0.00 in0.0 mm
06:15 PM 50.0°F10.0°C 48.0°F8.9°C 93% 10.0 mph E16.1 kmh E 10.0 mph16.1 kmh 29.26 in990.9 mb 0.00 in0.0 mm 0.00 in0.0 mm 0.00 in0.0 mm
06:20 PM 50.2°F10.1°C 48.5°F9.2°C 94% 9.0 mph ESE14.5 kmh ESE 16.0 mph25.7 kmh 29.24 in990.2 mb 0.00 in0.0 mm 0.00 in0.0 mm 0.00 in0.0 mm
06:25 PM 50.5°F10.3°C 48.8°F9.3°C 94% 12.0 mph E19.3 kmh E 19.0 mph30.6 kmh 29.23 in989.8 mb 0.00 in0.0 mm 0.00 in0.0 mm 0.00 in0.0 mm
06:30 PM 50.6°F10.3°C 48.9°F9.4°C 94% 14.0 mph SE22.5 kmh SE 21.0 mph33.8 kmh 29.23 in989.8 mb 0.00 in0.0 mm 0.00 in0.0 mm 0.00 in0.0 mm
06:35 PM 50.7°F10.4°C 48.7°F9.3°C 93% 14.0 mph E22.5 kmh E 18.0 mph29.0 kmh 29.22 in989.5 mb 0.00 in0.0 mm 0.00 in0.0 mm 0.00 in0.0 mm
06:40 PM 50.9°F10.5°C 49.2°F9.6°C 94% 12.0 mph ESE19.3 kmh ESE 20.0 mph32.2 kmh 29.21 in989.2 mb 0.00 in0.0 mm 0.00 in0.0 mm 0.00 in0.0 mm
06:45 PM 51.1°F10.6°C 49.1°F9.5°C 93% 14.0 mph E22.5 kmh E 17.0 mph27.4 kmh 29.20 in988.8 mb 0.00 in0.0 mm 0.00 in0.0 mm 0.00 in0.0 mm
06:50 PM 51.2°F10.7°C 49.2°F9.6°C 93% 13.0 mph ESE20.9 kmh ESE 13.0 mph20.9 kmh 29.18 in988.1 mb 0.00 in0.0 mm 0.00 in0.0 mm 0.00 in0.0 mm
06:55 PM 51.4°F10.8°C 49.4°F9.7°C 93% 11.0 mph SE17.7 kmh SE 16.0 mph25.7 kmh 29.17 in987.8 mb 0.00 in0.0 mm 0.00 in0.0 mm 0.00 in0.0 mm
07:00 PM 51.7°F10.9°C 49.7°F9.8°C 93% 15.0 mph ESE24.1 kmh ESE 16.0 mph25.7 kmh 29.17 in987.8 mb 0.00 in0.0 mm 0.00 in0.0 mm 0.00 in0.0 mm
07:05 PM 52.0°F11.1°C 49.7°F9.8°C 92% 9.0 mph SE14.5 kmh SE 18.0 mph29.0 kmh 29.18 in988.1 mb 0.00 in0.0 mm 0.00 in0.0 mm 0.00 in0.0 mm
07:10 PM 52.0°F11.1°C 49.7°F9.8°C 92% 13.0 mph E20.9 kmh E 14.0 mph22.5 kmh 29.19 in988.5 mb 0.00 in0.0 mm 0.00 in0.0 mm 0.00 in0.0 mm
07:15 PM 51.8°F11.0°C 49.5°F9.7°C 92% 4.0 mph ESE6.4 kmh ESE 15.0 mph24.1 kmh 29.19 in988.5 mb 0.00 in0.0 mm 0.00 in0.0 mm 0.00 in0.0 mm
07:20 PM 51.7°F10.9°C 49.4°F9.7°C 92% 10.0 mph ESE16.1 kmh ESE 14.0 mph22.5 kmh 29.18 in988.1 mb 0.00 in0.0 mm 0.00 in0.0 mm 0.00 in0.0 mm
07:25 PM 51.6°F10.9°C 49.3°F9.6°C 92% 5.0 mph SE8.0 kmh SE 12.0 mph19.3 kmh 29.17 in987.8 mb 0.00 in0.0 mm 0.00 in0.0 mm 0.00 in0.0 mm
07:30 PM 51.6°F10.9°C 49.3°F9.6°C 92% 9.0 mph SE14.5 kmh SE 15.0 mph24.1 kmh 29.18 in988.1 mb 0.00 in0.0 mm 0.00 in0.0 mm 0.00 in0.0 mm
07:35 PM 51.7°F10.9°C 49.4°F9.7°C 92% 8.0 mph ESE12.9 kmh ESE 13.0 mph20.9 kmh 29.18 in988.1 mb 0.00 in0.0 mm 0.00 in0.0 mm 0.00 in0.0 mm
07:40 PM 51.7°F10.9°C 49.4°F9.7°C 92% 5.0 mph SE8.0 kmh SE 12.0 mph19.3 kmh 29.17 in987.8 mb 0.00 in0.0 mm 0.00 in0.0 mm 0.00 in0.0 mm
07:45 PM 51.8°F11.0°C 49.5°F9.7°C 92% 7.0 mph E11.3 kmh E 12.0 mph19.3 kmh 29.18 in988.1 mb 0.00 in0.0 mm 0.00 in0.0 mm 0.00 in0.0 mm
07:50 PM 51.8°F11.0°C 49.5°F9.7°C 92% 8.0 mph E12.9 kmh E 12.0 mph19.3 kmh 29.17 in987.8 mb 0.00 in0.0 mm 0.00 in0.0 mm 0.00 in0.0 mm
07:55 PM 51.8°F11.0°C 49.5°F9.7°C 92% 9.0 mph E14.5 kmh E 10.0 mph16.1 kmh 29.16 in987.5 mb 0.00 in0.0 mm 0.00 in0.0 mm 0.00 in0.0 mm
08:00 PM 52.0°F11.1°C 49.7°F9.8°C 92% 10.0 mph E16.1 kmh E 13.0 mph20.9 kmh 29.18 in988.1 mb 0.00 in0.0 mm 0.00 in0.0 mm 0.00 in0.0 mm
08:05 PM 52.3°F11.3°C 50.0°F10.0°C 92% 11.0 mph ESE17.7 kmh ESE 13.0 mph20.9 kmh 29.18 in988.1 mb 0.00 in0.0 mm 0.00 in0.0 mm 0.00 in0.0 mm
08:10 PM 52.5°F11.4°C 49.9°F9.9°C 91% 5.0 mph E8.0 kmh E 12.0 mph19.3 kmh 29.18 in988.1 mb 0.00 in0.0 mm 0.00 in0.0 mm 0.00 in0.0 mm
08:15 PM 52.6°F11.4°C 50.0°F10.0°C 91% 4.0 mph ESE6.4 kmh ESE 10.0 mph16.1 kmh 29.18 in988.1 mb 0.00 in0.0 mm 0.00 in0.0 mm 0.00 in0.0 mm
08:20 PM 52.7°F11.5°C 50.4°F10.2°C 92% 2.0 mph SE3.2 kmh SE 7.0 mph11.3 kmh 29.18 in988.1 mb 0.00 in0.0 mm 0.00 in0.0 mm 0.00 in0.0 mm
08:25 PM 52.7°F11.5°C 50.4°F10.2°C 92% 2.0 mph S3.2 kmh S 6.0 mph9.7 kmh 29.18 in988.1 mb 0.00 in0.0 mm 0.00 in0.0 mm 0.00 in0.0 mm
08:30 PM 52.6°F11.4°C 50.3°F10.2°C 92% 2.0 mph SSW3.2 kmh SSW 4.0 mph6.4 kmh 29.18 in988.1 mb 0.00 in0.0 mm 0.00 in0.0 mm 0.00 in0.0 mm
08:35 PM 52.5°F11.4°C 50.2°F10.1°C 92% Calm Calm 3.0 mph4.8 kmh 29.17 in987.8 mb 0.00 in0.0 mm 0.00 in0.0 mm 0.00 in0.0 mm
08:40 PM 52.5°F11.4°C 50.2°F10.1°C 92% Calm Calm -- 29.15 in987.1 mb 0.00 in0.0 mm 0.00 in0.0 mm 0.00 in0.0 mm
08:45 PM 52.2°F11.2°C 49.9°F9.9°C 92% 2.0 mph ENE3.2 kmh ENE 3.0 mph4.8 kmh 29.14 in986.8 mb 0.00 in0.0 mm 0.00 in0.0 mm 0.00 in0.0 mm
08:50 PM 51.9°F11.1°C 49.9°F9.9°C 93% 3.0 mph E4.8 kmh E 3.0 mph4.8 kmh 29.14 in986.8 mb 0.00 in0.0 mm 0.00 in0.0 mm 0.00 in0.0 mm
08:55 PM 51.7°F10.9°C 49.7°F9.8°C 93% 2.0 mph E3.2 kmh E 5.0 mph8.0 kmh 29.14 in986.8 mb 0.00 in0.0 mm 0.00 in0.0 mm 0.00 in0.0 mm
09:00 PM 51.3°F10.7°C 49.3°F9.6°C 93% 4.0 mph NE6.4 kmh NE 7.0 mph11.3 kmh 29.14 in986.8 mb 0.00 in0.0 mm 0.00 in0.0 mm 0.00 in0.0 mm
09:05 PM 51.6°F10.9°C 49.9°F9.9°C 94% 10.0 mph ENE16.1 kmh ENE 12.0 mph19.3 kmh 29.12 in986.1 mb 0.00 in0.0 mm 0.00 in0.0 mm 0.00 in0.0 mm
09:10 PM 52.2°F11.2°C 50.5°F10.3°C 94% 7.0 mph E11.3 kmh E 17.0 mph27.4 kmh 29.12 in986.1 mb 0.00 in0.0 mm 0.00 in0.0 mm 0.00 in0.0 mm
09:15 PM 52.8°F11.6°C 50.8°F10.4°C 93% 7.0 mph E11.3 kmh E 15.0 mph24.1 kmh 29.10 in985.4 mb 0.00 in0.0 mm 0.00 in0.0 mm 0.00 in0.0 mm
09:20 PM 53.0°F11.7°C 50.7°F10.4°C 92% 6.0 mph E9.7 kmh E 13.0 mph20.9 kmh 29.10 in985.4 mb 0.00 in0.0 mm 0.00 in0.0 mm 0.00 in0.0 mm
09:25 PM 53.1°F11.7°C 50.8°F10.4°C 92% 7.0 mph E11.3 kmh E 14.0 mph22.5 kmh 29.09 in985.1 mb 0.00 in0.0 mm 0.00 in0.0 mm 0.00 in0.0 mm
09:30 PM 53.2°F11.8°C 50.9°F10.5°C 92% 6.0 mph NE9.7 kmh NE 12.0 mph19.3 kmh 29.10 in985.4 mb 0.00 in0.0 mm 0.00 in0.0 mm 0.00 in0.0 mm
09:35 PM 53.1°F11.7°C 50.8°F10.4°C 92% 5.0 mph E8.0 kmh E 10.0 mph16.1 kmh 29.08 in984.8 mb 0.00 in0.0 mm 0.00 in0.0 mm 0.00 in0.0 mm
09:40 PM 53.2°F11.8°C 50.6°F10.3°C 91% 6.0 mph E9.7 kmh E 12.0 mph19.3 kmh 29.08 in984.8 mb 0.00 in0.0 mm 0.00 in0.0 mm 0.00 in0.0 mm
09:45 PM 53.4°F11.9°C 50.8°F10.4°C 91% 6.0 mph E9.7 kmh E 12.0 mph19.3 kmh 29.09 in985.1 mb 0.00 in0.0 mm 0.00 in0.0 mm 0.00 in0.0 mm
09:50 PM 53.5°F11.9°C 50.9°F10.5°C 91% 5.0 mph E8.0 kmh E 12.0 mph19.3 kmh 29.08 in984.8 mb 0.00 in0.0 mm 0.00 in0.0 mm 0.00 in0.0 mm
09:55 PM 53.6°F12.0°C 51.0°F10.6°C 91% 11.0 mph E17.7 kmh E 12.0 mph19.3 kmh 29.07 in984.4 mb 0.00 in0.0 mm 0.00 in0.0 mm 0.00 in0.0 mm
10:00 PM 53.9°F12.2°C 51.0°F10.6°C 90% 8.0 mph E12.9 kmh E 12.0 mph19.3 kmh 29.08 in984.8 mb 0.00 in0.0 mm 0.00 in0.0 mm 0.00 in0.0 mm
10:05 PM 54.4°F12.4°C 51.5°F10.8°C 90% 9.0 mph ESE14.5 kmh ESE 13.0 mph20.9 kmh 29.07 in984.4 mb 0.00 in0.0 mm 0.00 in0.0 mm 0.00 in0.0 mm
10:10 PM 54.8°F12.7°C 51.6°F10.9°C 89% 6.0 mph E9.7 kmh E 12.0 mph19.3 kmh 29.07 in984.4 mb 0.00 in0.0 mm 0.00 in0.0 mm 0.00 in0.0 mm
10:15 PM 54.8°F12.7°C 51.3°F10.7°C 88% 4.0 mph SE6.4 kmh SE 12.0 mph19.3 kmh 29.09 in985.1 mb 0.00 in0.0 mm 0.00 in0.0 mm 0.00 in0.0 mm
10:20 PM 54.6°F12.6°C 51.4°F10.8°C 89% 2.0 mph ESE3.2 kmh ESE 11.0 mph17.7 kmh 29.11 in985.8 mb 0.00 in0.0 mm 0.00 in0.0 mm 0.00 in0.0 mm
10:25 PM 54.2°F12.3°C 51.0°F10.6°C 89% 2.0 mph SE3.2 kmh SE 11.0 mph17.7 kmh 29.12 in986.1 mb 0.00 in0.0 mm 0.00 in0.0 mm 0.00 in0.0 mm
10:30 PM 53.9°F12.2°C 51.0°F10.6°C 90% 4.0 mph SE6.4 kmh SE 7.0 mph11.3 kmh 29.12 in986.1 mb 0.00 in0.0 mm 0.00 in0.0 mm 0.00 in0.0 mm
10:35 PM 53.6°F12.0°C 50.7°F10.4°C 90% 5.0 mph E8.0 kmh E 11.0 mph17.7 kmh 29.10 in985.4 mb 0.00 in0.0 mm 0.00 in0.0 mm 0.00 in0.0 mm
10:40 PM 53.2°F11.8°C 50.6°F10.3°C 91% 5.0 mph ESE8.0 kmh ESE 11.0 mph17.7 kmh 29.10 in985.4 mb 0.00 in0.0 mm 0.00 in0.0 mm 0.00 in0.0 mm
10:45 PM 53.1°F11.7°C 50.5°F10.3°C 91% 10.0 mph E16.1 kmh E 15.0 mph24.1 kmh 29.08 in984.8 mb 0.00 in0.0 mm 0.00 in0.0 mm 0.00 in0.0 mm
10:50 PM 53.3°F11.8°C 50.7°F10.4°C 91% 12.0 mph E19.3 kmh E 19.0 mph30.6 kmh 29.07 in984.4 mb 0.00 in0.0 mm 0.00 in0.0 mm 0.00 in0.0 mm
10:55 PM 53.4°F11.9°C 50.8°F10.4°C 91% 7.0 mph SE11.3 kmh SE 14.0 mph22.5 kmh 29.03 in983.1 mb 0.00 in0.0 mm 0.00 in0.0 mm 0.00 in0.0 mm
11:00 PM 53.6°F12.0°C 51.0°F10.6°C 91% 10.0 mph E16.1 kmh E 17.0 mph27.4 kmh 29.07 in984.4 mb 0.00 in0.0 mm 0.00 in0.0 mm 0.00 in0.0 mm
11:05 PM 53.7°F12.1°C 51.1°F10.6°C 91% 1.0 mph SE1.6 kmh SE 14.0 mph22.5 kmh 29.08 in984.8 mb 0.00 in0.0 mm 0.00 in0.0 mm 0.00 in0.0 mm
11:10 PM 53.6°F12.0°C 51.0°F10.6°C 91% 7.0 mph E11.3 kmh E 15.0 mph24.1 kmh 29.09 in985.1 mb 0.00 in0.0 mm 0.00 in0.0 mm 0.00 in0.0 mm
11:15 PM 53.7°F12.1°C 51.1°F10.6°C 91% 10.0 mph E16.1 kmh E 16.0 mph25.7 kmh 29.10 in985.4 mb 0.00 in0.0 mm 0.00 in0.0 mm 0.00 in0.0 mm
11:20 PM 53.6°F12.0°C 51.0°F10.6°C 91% 10.0 mph ESE16.1 kmh ESE 12.0 mph19.3 kmh 29.10 in985.4 mb 0.00 in0.0 mm 0.00 in0.0 mm 0.00 in0.0 mm
11:25 PM 53.5°F11.9°C 50.9°F10.5°C 91% 4.0 mph SE6.4 kmh SE 13.0 mph20.9 kmh 29.10 in985.4 mb 0.00 in0.0 mm 0.00 in0.0 mm 0.00 in0.0 mm
11:30 PM 53.5°F11.9°C 50.6°F10.3°C 90% 5.0 mph SE8.0 kmh SE 11.0 mph17.7 kmh 29.10 in985.4 mb 0.00 in0.0 mm 0.00 in0.0 mm 0.00 in0.0 mm
11:35 PM 53.6°F12.0°C 50.7°F10.4°C 90% 5.0 mph SE8.0 kmh SE 11.0 mph17.7 kmh 29.10 in985.4 mb 0.00 in0.0 mm 0.00 in0.0 mm 0.00 in0.0 mm
11:40 PM 53.4°F11.9°C 50.5°F10.3°C 90% 7.0 mph ESE11.3 kmh ESE 12.0 mph19.3 kmh 29.09 in985.1 mb 0.00 in0.0 mm 0.00 in0.0 mm 0.00 in0.0 mm
11:45 PM 53.2°F11.8°C 50.6°F10.3°C 91% 10.0 mph E16.1 kmh E 14.0 mph22.5 kmh 29.09 in985.1 mb 0.00 in0.0 mm 0.00 in0.0 mm 0.00 in0.0 mm
11:50 PM 53.0°F11.7°C 50.4°F10.2°C 91% 7.0 mph ESE11.3 kmh ESE 14.0 mph22.5 kmh 29.10 in985.4 mb 0.00 in0.0 mm 0.00 in0.0 mm 0.00 in0.0 mm
11:55 PM 53.3°F11.8°C 50.4°F10.2°C 90% 9.0 mph SSE14.5 kmh SSE 14.0 mph22.5 kmh 29.09 in985.1 mb 0.00 in0.0 mm 0.00 in0.0 mm 0.00 in0.0 mm